createdAt,value
2022-12-29T00:01:57.897Z,11.23
2022-12-29T00:04:35.184Z,10.73
2022-12-29T00:07:06.183Z,9.38
2022-12-29T00:09:40.485Z,10.13
2022-12-29T00:12:13.287Z,10.25
2022-12-29T00:14:59.688Z,9.13
2022-12-29T00:17:30.783Z,10.68
2022-12-29T00:20:22.852Z,9.43
2022-12-29T00:23:14.015Z,9.32
2022-12-29T00:26:00.636Z,10.15
2022-12-29T00:28:46.380Z,9.38
2022-12-29T00:31:32.618Z,10.27
2022-12-29T00:34:21.018Z,9.18
2022-12-29T00:36:51.255Z,10.30
2022-12-29T00:39:42.751Z,10.10
2022-12-29T00:42:29.030Z,10.43
2022-12-29T00:44:56.804Z,9.68
2022-12-29T00:47:27.796Z,10.30
2022-12-29T00:50:03.901Z,9.40
2022-12-29T00:52:37.328Z,9.30
2022-12-29T00:55:05.207Z,9.60
2022-12-29T00:57:35.486Z,9.40
2022-12-29T01:00:06.466Z,9.60
2022-12-29T01:02:40.356Z,10.00
2022-12-29T01:05:08.168Z,10.57
2022-12-29T01:07:40.223Z,10.32
2022-12-29T01:10:11.335Z,9.73
2022-12-29T01:12:42.356Z,9.50
2022-12-29T01:15:14.578Z,9.43
2022-12-29T01:17:46.142Z,9.30
2022-12-29T01:20:13.945Z,9.40
2022-12-29T01:22:48.321Z,9.50
2022-12-29T01:25:25.544Z,10.85
2022-12-29T01:27:56.355Z,10.90
2022-12-29T01:30:27.079Z,11.02
2022-12-29T01:33:00.532Z,10.75
2022-12-29T01:35:31.437Z,9.98
2022-12-29T01:38:02.403Z,9.52
2022-12-29T01:40:32.773Z,9.65
2022-12-29T01:43:02.875Z,9.65
2022-12-29T01:45:30.613Z,9.63
2022-12-29T01:48:07.907Z,9.32
2022-12-29T01:50:56.157Z,9.77
2022-12-29T01:53:31.464Z,9.45
2022-12-29T01:56:08.332Z,10.45
2022-12-29T01:58:42.393Z,9.50
2022-12-29T02:01:14.011Z,9.85
2022-12-29T02:03:42.383Z,8.98
2022-12-29T02:06:22.222Z,10.57
2022-12-29T02:08:53.318Z,9.48
2022-12-29T02:11:28.784Z,9.95
2022-12-29T02:14:00.970Z,9.38
2022-12-29T02:16:42.936Z,8.98
2022-12-29T02:19:31.628Z,9.25
2022-12-29T02:22:05.344Z,9.25
2022-12-29T02:25:10.972Z,9.20
2022-12-29T02:27:59.193Z,9.20
2022-12-29T02:30:29.623Z,9.73
2022-12-29T02:33:29.279Z,9.32
2022-12-29T02:36:09.067Z,9.52
2022-12-29T02:38:42.490Z,8.85
2022-12-29T02:41:34.776Z,9.18
2022-12-29T02:44:23.955Z,9.07
2022-12-29T02:46:57.633Z,9.38
2022-12-29T02:52:23.595Z,8.80
2022-12-29T02:54:57.481Z,9.00
2022-12-29T02:57:30.483Z,9.63
2022-12-29T03:00:11.592Z,9.48
2022-12-29T03:03:10.802Z,9.82
2022-12-29T03:05:57.449Z,8.98
2022-12-29T03:09:18.838Z,9.77
2022-12-29T03:12:14.596Z,9.63
2022-12-29T03:15:36.211Z,9.00
2022-12-29T03:18:14.508Z,9.00
2022-12-29T03:20:58.203Z,9.38
2022-12-29T03:23:28.070Z,8.43
2022-12-29T03:26:05.374Z,9.68
2022-12-29T03:28:42.409Z,9.25
2022-12-29T03:31:26.807Z,8.82
2022-12-29T03:34:00.682Z,9.57
2022-12-29T03:36:46.522Z,9.70
2022-12-29T03:39:22.131Z,9.05
2022-12-29T03:41:53.831Z,9.23
2022-12-29T03:44:43.156Z,9.07
2022-12-29T03:47:14.272Z,7.93
2022-12-29T03:49:45.162Z,8.45
2022-12-29T03:52:18.462Z,8.17
2022-12-29T03:54:48.105Z,8.40
2022-12-29T03:57:15.880Z,8.50
2022-12-29T03:59:51.585Z,8.95
2022-12-29T04:02:25.834Z,8.38
2022-12-29T04:05:06.568Z,8.80
2022-12-29T04:07:37.526Z,8.77
2022-12-29T04:10:15.335Z,8.68
2022-12-29T04:12:47.797Z,9.18
2022-12-29T04:15:21.104Z,10.02
2022-12-29T04:17:56.275Z,9.55
2022-12-29T04:20:48.157Z,9.07
2022-12-29T04:23:18.773Z,8.25
2022-12-29T04:25:48.661Z,9.02
2022-12-29T04:28:25.204Z,8.73
2022-12-29T04:31:18.799Z,9.02
2022-12-29T04:33:50.167Z,8.32
2022-12-29T04:36:17.608Z,8.75
2022-12-29T04:38:52.418Z,9.07
2022-12-29T04:41:20.520Z,8.48
2022-12-29T04:43:49.260Z,8.75
2022-12-29T04:46:34.958Z,9.40
2022-12-29T04:49:13.915Z,8.30
2022-12-29T04:51:55.900Z,9.95
2022-12-29T04:54:24.673Z,7.97
2022-12-29T04:57:08.069Z,8.52
2022-12-29T04:59:38.838Z,8.35
2022-12-29T05:02:07.638Z,8.98
2022-12-29T05:04:39.664Z,8.77
2022-12-29T05:07:10.809Z,8.45
2022-12-29T05:09:41.728Z,9.35
2022-12-29T05:12:13.157Z,8.45
2022-12-29T05:14:54.180Z,9.30
2022-12-29T05:17:23.875Z,8.87
2022-12-29T05:19:51.866Z,8.55
2022-12-29T05:22:21.610Z,7.78
2022-12-29T05:24:55.227Z,9.18
2022-12-29T05:27:26.572Z,8.63
2022-12-29T05:30:16.569Z,8.27
2022-12-29T05:32:44.992Z,7.68
2022-12-29T05:35:12.626Z,7.78
2022-12-29T05:37:46.239Z,8.18
2022-12-29T05:40:16.755Z,7.70
2022-12-29T05:42:45.251Z,8.93
2022-12-29T05:45:25.844Z,8.20
2022-12-29T05:48:20.943Z,8.43
2022-12-29T05:51:29.803Z,8.20
2022-12-29T05:54:05.016Z,8.27
2022-12-29T05:56:35.213Z,8.00
2022-12-29T05:59:08.883Z,9.32
2022-12-29T06:01:37.354Z,7.72
2022-12-29T06:04:13.049Z,8.13
2022-12-29T06:09:24.721Z,8.68
2022-12-29T06:11:58.824Z,8.45
2022-12-29T06:14:27.079Z,8.20
2022-12-29T06:16:57.824Z,8.77
2022-12-29T06:19:31.038Z,8.02
2022-12-29T06:22:01.735Z,8.45
2022-12-29T06:24:29.859Z,7.72
2022-12-29T06:26:59.737Z,8.15
2022-12-29T06:29:38.196Z,8.77
2022-12-29T06:32:10.992Z,8.93
2022-12-29T06:34:54.752Z,8.40
2022-12-29T06:37:27.531Z,8.77
2022-12-29T06:39:55.938Z,9.75
2022-12-29T06:42:29.730Z,9.60
2022-12-29T06:45:19.789Z,8.13
2022-12-29T06:47:49.518Z,9.63
2022-12-29T06:50:19.550Z,8.43
2022-12-29T06:52:52.112Z,8.15
2022-12-29T06:55:24.667Z,8.75
2022-12-29T06:57:55.961Z,8.65
2022-12-29T07:00:24.948Z,8.07
2022-12-29T07:02:56.149Z,8.65
2022-12-29T07:05:23.766Z,7.88
2022-12-29T07:07:52.120Z,8.48
2022-12-29T07:10:23.690Z,7.57
2022-12-29T07:12:57.152Z,8.77
2022-12-29T07:15:30.322Z,10.13
2022-12-29T07:17:58.794Z,8.60
2022-12-29T07:20:30.713Z,8.07
2022-12-29T07:23:00.887Z,7.68
2022-12-29T07:25:28.872Z,8.05
2022-12-29T07:28:02.505Z,8.63
2022-12-29T07:30:34.086Z,7.97
2022-12-29T07:33:07.794Z,8.27
2022-12-29T07:35:39.299Z,7.75
2022-12-29T07:38:09.689Z,8.75
2022-12-29T07:40:40.162Z,8.25
2022-12-29T07:43:13.436Z,8.55
2022-12-29T07:45:54.484Z,7.72
2022-12-29T07:48:30.559Z,9.15
2022-12-29T07:51:00.901Z,8.38
2022-12-29T07:53:31.205Z,8.25
2022-12-29T07:56:01.674Z,7.93
2022-12-29T07:58:33.090Z,8.68
2022-12-29T08:01:07.527Z,8.30
2022-12-29T08:03:42.618Z,7.72
2022-12-29T08:06:19.843Z,8.68
2022-12-29T08:08:50.714Z,9.95
2022-12-29T08:11:29.525Z,8.85
2022-12-29T08:14:07.648Z,9.35
2022-12-29T08:16:38.939Z,8.63
2022-12-29T08:19:11.429Z,8.18
2022-12-29T08:21:48.161Z,9.73
2022-12-29T08:24:18.502Z,8.90
2022-12-29T08:27:12.025Z,9.30
2022-12-29T08:29:47.005Z,8.65
2022-12-29T08:32:15.821Z,7.82
2022-12-29T08:34:51.320Z,8.55
2022-12-29T08:37:26.308Z,8.50
2022-12-29T08:40:05.050Z,7.88
2022-12-29T08:42:37.594Z,8.98
2022-12-29T08:45:09.766Z,8.77
2022-12-29T08:47:41.120Z,8.73
2022-12-29T08:50:13.451Z,8.88
2022-12-29T08:52:52.578Z,8.38
2022-12-29T08:55:26.231Z,8.10
2022-12-29T08:57:58.547Z,8.80
2022-12-29T09:00:37.250Z,8.05
2022-12-29T09:03:07.827Z,8.52
2022-12-29T09:05:38.919Z,9.75
2022-12-29T09:08:10.400Z,8.30
2022-12-29T09:10:41.658Z,8.45
2022-12-29T09:13:16.144Z,8.48
2022-12-29T09:15:49.623Z,8.45
2022-12-29T09:18:27.340Z,8.65
2022-12-29T09:21:09.136Z,8.85
2022-12-29T09:23:42.599Z,7.60
2022-12-29T09:26:12.808Z,9.20
2022-12-29T09:28:43.990Z,8.00
2022-12-29T09:31:16.934Z,8.65
2022-12-29T09:33:47.927Z,8.70
2022-12-29T09:36:15.939Z,8.45
2022-12-29T09:38:49.487Z,8.30
2022-12-29T09:41:25.003Z,8.75
2022-12-29T09:44:04.286Z,9.32
2022-12-29T09:46:52.425Z,8.55
2022-12-29T09:49:44.148Z,9.23
2022-12-29T09:52:24.970Z,8.50
2022-12-29T09:55:02.407Z,8.50
2022-12-29T09:57:43.139Z,8.60
2022-12-29T10:00:55.453Z,8.63
2022-12-29T10:03:45.383Z,12.02
2022-12-29T10:07:28.009Z,8.57
2022-12-29T10:10:04.770Z,8.40
2022-12-29T10:12:51.419Z,10.25
2022-12-29T10:15:50.417Z,9.80
2022-12-29T10:18:31.458Z,8.90
2022-12-29T10:21:22.996Z,8.48
2022-12-29T10:23:54.169Z,10.55
2022-12-29T10:26:32.884Z,9.32
2022-12-29T10:29:17.699Z,8.77
2022-12-29T10:31:59.790Z,9.50
2022-12-29T10:34:43.374Z,9.30
2022-12-29T10:37:35.533Z,9.25
2022-12-29T10:40:18.222Z,8.70
2022-12-29T10:42:57.907Z,9.65
2022-12-29T10:45:31.818Z,8.55
2022-12-29T10:48:25.913Z,8.02
2022-12-29T10:51:04.171Z,9.05
2022-12-29T10:53:47.650Z,9.68
2022-12-29T10:56:47.798Z,9.02
2022-12-29T10:59:22.541Z,9.60
2022-12-29T11:02:12.561Z,9.52
2022-12-29T11:05:25.082Z,9.07
2022-12-29T11:08:01.199Z,9.15
2022-12-29T11:10:35.174Z,9.48
2022-12-29T11:13:26.326Z,8.93
2022-12-29T11:15:54.097Z,9.77
2022-12-29T11:18:26.595Z,9.40
2022-12-29T11:21:02.643Z,9.43
2022-12-29T11:23:37.024Z,9.48
2022-12-29T11:26:19.156Z,9.57
2022-12-29T11:29:08.413Z,9.18
2022-12-29T11:31:50.730Z,9.68
2022-12-29T11:34:35.704Z,10.45
2022-12-29T11:37:16.593Z,9.13
2022-12-29T11:39:53.304Z,9.23
2022-12-29T11:42:29.562Z,9.98
2022-12-29T11:45:10.831Z,9.40
2022-12-29T11:47:38.785Z,10.55
2022-12-29T11:50:11.292Z,10.43
2022-12-29T11:52:40.749Z,9.75
2022-12-29T11:55:24.289Z,10.07
2022-12-29T11:57:54.725Z,10.23
2022-12-29T12:00:28.724Z,10.60
2022-12-29T12:03:08.684Z,11.68
2022-12-29T12:05:53.587Z,9.27
2022-12-29T12:08:36.948Z,10.15
2022-12-29T12:11:17.549Z,10.45
2022-12-29T12:13:53.641Z,9.80
2022-12-29T12:16:25.772Z,11.98
2022-12-29T12:19:42.158Z,10.73
2022-12-29T12:22:38.530Z,9.50
2022-12-29T12:25:14.122Z,13.50
2022-12-29T12:27:52.560Z,10.60
2022-12-29T12:30:24.247Z,11.02
2022-12-29T12:32:59.728Z,10.52
2022-12-29T12:35:27.351Z,11.05
2022-12-29T12:38:21.087Z,11.38
2022-12-29T12:41:00.297Z,12.27
2022-12-29T12:43:50.647Z,12.07
2022-12-29T12:46:53.186Z,10.57
2022-12-29T12:49:29.330Z,11.15
2022-12-29T12:52:10.147Z,12.05
2022-12-29T12:54:40.829Z,15.80
2022-12-29T12:57:18.454Z,11.50
2022-12-29T13:00:14.747Z,12.63
2022-12-29T13:03:13.572Z,13.32
2022-12-29T13:06:02.140Z,15.65
2022-12-29T13:08:57.767Z,15.65
2022-12-29T13:11:43.402Z,16.02
2022-12-29T13:14:32.233Z,15.30
2022-12-29T13:17:25.906Z,15.05
2022-12-29T13:20:21.439Z,15.07
2022-12-29T13:22:58.232Z,14.05
2022-12-29T13:25:39.134Z,13.93
2022-12-29T13:28:20.407Z,13.00
2022-12-29T13:31:22.098Z,13.98
2022-12-29T13:34:05.096Z,14.95
2022-12-29T13:36:50.531Z,13.87
2022-12-29T13:39:31.689Z,14.00
2022-12-29T13:42:01.819Z,15.13
2022-12-29T13:44:58.986Z,14.00
2022-12-29T13:47:42.754Z,14.27
2022-12-29T13:50:28.788Z,15.48
2022-12-29T13:52:59.821Z,13.32
2022-12-29T13:55:41.808Z,14.73
2022-12-29T13:58:48.867Z,12.82
2022-12-29T14:01:25.307Z,17.20
2022-12-29T14:04:39.295Z,14.38
2022-12-29T14:07:18.938Z,14.65
2022-12-29T14:09:59.125Z,13.20
2022-12-29T14:12:43.228Z,14.30
2022-12-29T14:15:17.348Z,14.27
2022-12-29T14:18:22.669Z,12.25
2022-12-29T14:20:59.740Z,13.20
2022-12-29T14:23:38.922Z,12.30
2022-12-29T14:26:08.339Z,13.55
2022-12-29T14:28:40.757Z,13.48
2022-12-29T14:31:23.208Z,13.85
2022-12-29T14:34:13.582Z,14.82
2022-12-29T14:36:54.817Z,11.95
2022-12-29T14:39:36.696Z,15.60
2022-12-29T14:42:13.954Z,13.65
2022-12-29T14:45:06.435Z,14.02
2022-12-29T14:47:45.591Z,13.05
2022-12-29T14:50:23.083Z,12.63
2022-12-29T14:53:02.122Z,13.18
2022-12-29T14:55:56.906Z,14.00
2022-12-29T14:58:47.193Z,12.73
2022-12-29T15:01:22.004Z,12.43
2022-12-29T15:03:52.296Z,14.63
2022-12-29T15:06:23.440Z,13.15
2022-12-29T15:09:02.890Z,13.07
2022-12-29T15:11:45.757Z,13.43
2022-12-29T15:14:34.234Z,12.20
2022-12-29T15:17:31.884Z,13.93
2022-12-29T15:20:30.211Z,11.57
2022-12-29T15:23:21.431Z,13.13
2022-12-29T15:26:09.976Z,14.10
2022-12-29T15:28:44.275Z,12.50
2022-12-29T15:31:30.782Z,12.27
2022-12-29T15:34:28.213Z,13.05
2022-12-29T15:37:01.674Z,11.10
2022-12-29T15:42:17.798Z,14.15
2022-12-29T15:44:58.090Z,13.18
2022-12-29T15:47:51.188Z,11.70
2022-12-29T15:50:38.411Z,13.55
2022-12-29T15:53:14.862Z,13.02
2022-12-29T15:55:48.597Z,13.52
2022-12-29T15:58:24.096Z,15.40
2022-12-29T16:00:54.372Z,17.23
2022-12-29T16:03:30.897Z,13.80
2022-12-29T16:06:31.119Z,14.07
2022-12-29T16:09:05.323Z,14.07
2022-12-29T16:11:40.620Z,14.23
2022-12-29T16:14:23.707Z,13.90
2022-12-29T16:16:54.004Z,13.60
2022-12-29T16:19:34.425Z,13.15
2022-12-29T16:22:12.722Z,14.32
2022-12-29T16:24:46.367Z,12.55
2022-12-29T16:27:32.510Z,12.77
2022-12-29T16:30:06.965Z,13.38
2022-12-29T16:32:47.791Z,14.02
2022-12-29T16:35:28.985Z,14.48
2022-12-29T16:38:17.285Z,14.70
2022-12-29T16:40:54.233Z,13.55
2022-12-29T16:43:35.225Z,14.75
2022-12-29T16:46:03.310Z,13.90
2022-12-29T16:48:56.139Z,14.15
2022-12-29T16:51:38.792Z,14.05
2022-12-29T16:54:09.671Z,14.95
2022-12-29T16:56:39.884Z,16.10
2022-12-29T16:59:24.786Z,14.20
2022-12-29T17:01:57.225Z,13.60
2022-12-29T17:04:32.516Z,13.32
2022-12-29T17:07:16.288Z,12.48
2022-12-29T17:09:49.670Z,14.23
2022-12-29T17:12:27.367Z,16.17
2022-12-29T17:14:58.857Z,13.65
2022-12-29T17:17:40.306Z,14.25
2022-12-29T17:20:21.397Z,14.75
2022-12-29T17:23:00.671Z,14.05
2022-12-29T17:25:40.404Z,14.02
2022-12-29T17:28:17.132Z,15.05
2022-12-29T17:30:50.541Z,15.20
2022-12-29T17:33:22.805Z,18.73
2022-12-29T17:35:57.387Z,15.02
2022-12-29T17:38:35.446Z,15.60
2022-12-29T17:41:14.697Z,16.83
2022-12-29T17:43:45.550Z,15.70
2022-12-29T17:46:18.337Z,16.10
2022-12-29T17:48:53.536Z,14.80
2022-12-29T17:51:23.174Z,16.67
2022-12-29T17:53:57.235Z,15.27
2022-12-29T17:56:32.143Z,16.35
2022-12-29T17:59:03.087Z,16.60
2022-12-29T18:01:35.898Z,17.70
2022-12-29T18:04:08.835Z,16.58
2022-12-29T18:06:36.427Z,14.13
2022-12-29T18:09:04.751Z,16.02
2022-12-29T18:11:37.943Z,16.92
2022-12-29T18:14:12.257Z,18.67
2022-12-29T18:16:44.755Z,16.77
2022-12-29T18:19:12.130Z,17.48
2022-12-29T18:21:42.307Z,18.00
2022-12-29T18:24:18.775Z,16.52
2022-12-29T18:26:49.324Z,17.13
2022-12-29T18:29:21.612Z,17.08
2022-12-29T18:31:49.246Z,17.00
2022-12-29T18:34:20.519Z,17.42
2022-12-29T18:36:53.459Z,16.90
2022-12-29T18:39:24.218Z,17.53
2022-12-29T18:42:04.192Z,18.92
2022-12-29T18:44:31.613Z,18.55
2022-12-29T18:46:59.261Z,17.88
2022-12-29T18:49:29.281Z,17.60
2022-12-29T18:51:57.608Z,17.63
2022-12-29T18:54:31.217Z,17.88
2022-12-29T18:59:32.038Z,16.95
2022-12-29T19:02:01.889Z,19.30
2022-12-29T19:04:31.692Z,16.50
2022-12-29T19:06:59.324Z,17.08
2022-12-29T19:09:29.679Z,17.08
2022-12-29T19:12:00.409Z,20.92
2022-12-29T19:14:33.073Z,18.77
2022-12-29T19:17:00.541Z,17.60
2022-12-29T19:19:30.855Z,17.67
2022-12-29T19:22:01.056Z,17.92
2022-12-29T19:24:28.417Z,16.98
2022-12-29T19:27:01.530Z,18.50
2022-12-29T19:29:31.524Z,16.27
2022-12-29T19:32:01.355Z,17.65
2022-12-29T19:34:28.614Z,17.20
2022-12-29T19:36:58.408Z,17.60
2022-12-29T19:39:26.148Z,16.42
2022-12-29T19:41:59.037Z,18.60
2022-12-29T19:44:32.154Z,17.77
2022-12-29T19:46:59.828Z,19.00
2022-12-29T19:49:27.355Z,17.17
2022-12-29T19:51:56.112Z,17.50
2022-12-29T19:54:23.452Z,18.58
2022-12-29T19:56:53.529Z,18.42
2022-12-29T19:59:21.969Z,17.45
2022-12-29T20:01:52.387Z,19.35
2022-12-29T20:04:22.231Z,16.83
2022-12-29T20:06:50.030Z,18.25
2022-12-29T20:09:20.364Z,17.95
2022-12-29T20:11:50.953Z,18.05
2022-12-29T20:14:21.206Z,18.55
2022-12-29T20:17:10.067Z,18.15
2022-12-29T20:19:42.633Z,17.17
2022-12-29T20:22:10.126Z,16.27
2022-12-29T20:24:45.188Z,17.58
2022-12-29T20:27:20.647Z,16.52
2022-12-29T20:29:52.415Z,16.92
2022-12-29T20:32:25.285Z,18.77
2022-12-29T20:34:54.092Z,17.87
2022-12-29T20:37:22.326Z,16.98
2022-12-29T20:39:52.498Z,17.10
2022-12-29T20:42:22.140Z,18.80
2022-12-29T20:44:50.932Z,17.73
2022-12-29T20:47:18.321Z,17.70
2022-12-29T20:49:50.486Z,16.88
2022-12-29T20:52:20.951Z,17.42
2022-12-29T20:54:48.575Z,17.35
2022-12-29T20:57:18.394Z,16.85
2022-12-29T20:59:48.723Z,18.55
2022-12-29T21:02:23.000Z,18.00
2022-12-29T21:05:22.729Z,17.52
2022-12-29T21:07:38.684Z,19.35
2022-12-29T21:10:08.853Z,18.33
2022-12-29T21:12:38.768Z,17.60
2022-12-29T21:15:06.747Z,16.20
2022-12-29T21:17:37.363Z,18.83
2022-12-29T21:20:05.059Z,18.27
2022-12-29T21:22:32.554Z,17.25
2022-12-29T21:24:59.950Z,17.10
2022-12-29T21:27:32.569Z,17.08
2022-12-29T21:30:00.178Z,18.00
2022-12-29T21:32:27.969Z,18.00
2022-12-29T21:35:00.201Z,16.63
2022-12-29T21:37:28.162Z,18.23
2022-12-29T21:39:58.373Z,17.63
2022-12-29T21:42:28.698Z,17.67
2022-12-29T21:45:20.895Z,18.35
2022-12-29T21:48:16.686Z,17.27
2022-12-29T21:51:06.964Z,17.25
2022-12-29T21:53:39.654Z,18.27
2022-12-29T21:56:09.132Z,17.45
2022-12-29T21:58:57.226Z,18.95
2022-12-29T22:01:45.116Z,17.35
2022-12-29T22:04:32.813Z,16.60
2022-12-29T22:07:20.581Z,16.92
2022-12-29T22:10:06.707Z,17.25
2022-12-29T22:12:53.965Z,17.73
2022-12-29T22:15:22.168Z,18.40
2022-12-29T22:17:54.010Z,17.65
2022-12-29T22:20:24.990Z,17.90
2022-12-29T22:22:55.559Z,17.58
2022-12-29T22:25:23.823Z,17.27
2022-12-29T22:27:59.254Z,15.65
2022-12-29T22:30:28.753Z,15.88
2022-12-29T22:33:02.231Z,16.55
2022-12-29T22:35:30.581Z,17.27
2022-12-29T22:38:00.721Z,19.23
2022-12-29T22:40:31.158Z,17.45
2022-12-29T22:43:09.466Z,18.08
2022-12-29T22:45:42.938Z,16.95
2022-12-29T22:48:13.353Z,17.17
2022-12-29T22:50:40.804Z,18.23
2022-12-29T22:53:08.162Z,17.58
2022-12-29T22:55:35.675Z,18.08
2022-12-29T22:58:03.395Z,17.75
2022-12-29T23:00:30.917Z,16.85
2022-12-29T23:02:59.647Z,16.63
2022-12-29T23:05:30.009Z,16.83
2022-12-29T23:08:00.202Z,16.80
2022-12-29T23:10:27.984Z,18.05
2022-12-29T23:12:55.513Z,17.30
2022-12-29T23:15:25.806Z,17.50
2022-12-29T23:17:55.606Z,16.55
2022-12-29T23:20:28.240Z,17.90
2022-12-29T23:23:00.581Z,16.77
2022-12-29T23:25:29.369Z,16.88
2022-12-29T23:27:59.565Z,16.52
2022-12-29T23:30:27.119Z,16.88
2022-12-29T23:32:56.867Z,17.70
2022-12-29T23:35:24.519Z,17.30
2022-12-29T23:37:54.446Z,17.23
2022-12-29T23:40:24.423Z,16.67
2022-12-29T23:42:57.013Z,17.42
2022-12-29T23:45:24.542Z,17.00
2022-12-29T23:47:51.953Z,16.45
2022-12-29T23:50:20.209Z,17.42
2022-12-29T23:52:48.042Z,15.68
2022-12-29T23:55:18.264Z,17.02
2022-12-29T23:57:46.663Z,15.40
